Time;durP1;ratioP1;P1;durP2;ratioP2;P2;SDS_P1;SDS_P2;PMS_P1;PMS_P2;Temp;Humidity;BMP_temperature;BMP_pressure;BME280_temperature;BME280_humidity;BME280_pressure;Samples;Min_cycle;Max_cycle;Signal;HPM_P1;HPM_P2
2022/06/05 00:01:02;;;;;;;5.83;3.93;;;17.70;99.90;;;;;;5050723;28;20269;-62
2022/06/05 00:03:35;;;;;;;4.10;3.10;;;17.70;99.90;;;;;;5068928;28;20721;-65
2022/06/05 00:06:11;;;;;;;4.77;3.20;;;17.70;99.90;;;;;;5071269;28;20219;-63
2022/06/05 00:08:51;;;;;;;4.20;3.10;;;17.70;99.90;;;;;;5071129;28;20193;-63
2022/06/05 00:11:18;;;;;;;4.37;3.60;;;17.80;99.90;;;;;;5061873;28;20197;-63
2022/06/05 00:13:49;;;;;;;4.57;3.80;;;17.80;99.90;;;;;;5055383;28;20740;-64
2022/06/05 00:16:20;;;;;;;4.93;4.00;;;17.70;99.90;;;;;;5070775;28;20209;-63
2022/06/05 00:18:48;;;;;;;4.73;3.47;;;17.70;99.90;;;;;;5071119;28;20293;-63
2022/06/05 00:21:16;;;;;;;4.77;3.23;;;17.60;99.90;;;;;;5070262;28;20197;-64
2022/06/05 00:23:43;;;;;;;5.20;3.27;;;17.60;99.90;;;;;;5070732;28;20206;-64
2022/06/05 00:26:19;;;;;;;4.57;3.30;;;17.60;99.90;;;;;;5069231;28;20190;-63
2022/06/05 00:28:53;;;;;;;5.03;3.30;;;17.60;99.90;;;;;;5069056;28;20198;-64
2022/06/05 00:31:30;;;;;;;3.97;3.33;;;17.40;99.90;;;;;;5070604;28;20244;-65
2022/06/05 00:33:57;;;;;;;4.17;3.00;;;17.40;99.90;;;;;;5071441;28;20724;-64
2022/06/05 00:36:42;;;;;;;5.07;2.97;;;17.40;99.90;;;;;;5070837;28;20316;-64
2022/06/05 00:39:13;;;;;;;5.20;3.23;;;17.40;99.90;;;;;;5052387;28;20722;-65
2022/06/05 00:41:54;;;;;;;5.47;3.13;;;17.50;99.90;;;;;;5051076;28;20286;-63
2022/06/05 00:44:27;;;;;;;4.77;3.30;;;17.50;99.90;;;;;;5050472;28;20286;-64
2022/06/05 00:46:56;;;;;;;4.97;2.90;;;17.50;99.90;;;;;;5063537;28;20299;-63
2022/06/05 00:49:34;;;;;;;4.20;2.83;;;17.60;99.90;;;;;;5070478;28;20209;-66
2022/06/05 00:52:01;;;;;;;3.83;2.70;;;17.50;99.90;;;;;;5070953;28;20572;-64
2022/06/05 00:54:28;;;;;;;3.47;2.50;;;17.50;99.90;;;;;;5064385;28;20273;-65
2022/06/05 00:56:55;;;;;;;4.30;2.27;;;17.60;99.90;;;;;;5050963;28;20293;-64
2022/06/05 00:59:22;;;;;;;4.67;2.90;;;17.60;99.90;;;;;;5069579;28;20674;-65
2022/06/05 01:01:50;;;;;;;4.00;2.70;;;17.70;99.90;;;;;;5074171;28;20316;-63
2022/06/05 01:04:19;;;;;;;3.57;2.57;;;17.70;99.90;;;;;;5069184;28;20228;-65
2022/06/05 01:06:46;;;;;;;2.73;2.47;;;17.80;99.90;;;;;;5054141;28;20213;-64
2022/06/05 01:09:13;;;;;;;2.97;2.67;;;17.80;99.90;;;;;;5053958;28;20258;-64
2022/06/05 01:11:51;;;;;;;2.60;2.40;;;17.80;99.90;;;;;;5054338;28;20299;-66
2022/06/05 01:14:27;;;;;;;3.00;2.67;;;17.80;99.90;;;;;;5057497;28;20238;-65
2022/06/05 01:17:00;;;;;;;3.57;2.60;;;17.80;99.90;;;;;;5068925;28;20688;-64
2022/06/05 01:19:51;;;;;;;3.20;2.27;;;17.70;99.90;;;;;;5054188;28;20761;-65
2022/06/05 01:22:39;;;;;;;3.20;2.57;;;17.70;99.90;;;;;;5052125;28;20317;-64
2022/06/05 01:25:30;;;;;;;2.53;2.33;;;17.70;99.90;;;;;;5054114;28;20190;-64
2022/06/05 01:28:02;;;;;;;3.23;2.40;;;17.70;99.90;;;;;;5054026;28;20578;-63
2022/06/05 01:30:32;;;;;;;3.90;2.50;;;17.60;99.90;;;;;;5054222;28;20276;-63
2022/06/05 01:33:07;;;;;;;8.03;2.60;;;17.60;99.90;;;;;;5053789;28;20689;-65
2022/06/05 01:35:43;;;;;;;3.20;2.90;;;17.60;99.90;;;;;;5063527;28;20266;-64
2022/06/05 01:38:14;;;;;;;3.53;2.87;;;17.60;99.90;;;;;;5073258;28;20287;-64
2022/06/05 01:40:46;;;;;;;4.43;2.80;;;17.50;99.90;;;;;;5073555;28;20222;-64
2022/06/05 01:43:18;;;;;;;4.40;2.53;;;17.50;99.90;;;;;;5073291;28;20248;-65
2022/06/05 01:45:49;;;;;;;4.00;2.60;;;17.40;99.90;;;;;;5071560;28;20283;-65
2022/06/05 01:48:21;;;;;;;4.17;2.60;;;17.50;99.90;;;;;;5073379;28;20604;-63
2022/06/05 01:50:53;;;;;;;2.93;2.33;;;17.50;99.90;;;;;;5061978;28;20278;-66
2022/06/05 01:53:24;;;;;;;15.50;3.20;;;17.50;99.90;;;;;;5053436;28;20237;-65
2022/06/05 01:55:54;;;;;;;15.17;2.80;;;17.60;99.90;;;;;;5053497;28;20608;-65
2022/06/05 01:58:27;;;;;;;9.03;2.47;;;17.60;99.90;;;;;;5053295;28;20192;-63
2022/06/05 02:01:00;;;;;;;4.60;2.50;;;17.60;99.90;;;;;;5053306;28;20290;-64
2022/06/05 02:03:32;;;;;;;3.67;2.30;;;17.70;99.90;;;;;;5051862;28;20313;-65
2022/06/05 02:06:04;;;;;;;3.60;2.93;;;17.60;99.90;;;;;;5052797;28;20274;-64
2022/06/05 02:08:37;;;;;;;3.20;2.40;;;17.60;99.90;;;;;;5052801;28;20191;-64
2022/06/05 02:11:11;;;;;;;4.53;2.63;;;17.50;99.90;;;;;;5052871;28;20688;-65
2022/06/05 02:13:40;;;;;;;3.17;2.50;;;17.40;99.90;;;;;;5051919;28;20200;-65
2022/06/05 02:16:08;;;;;;;3.17;2.43;;;17.40;99.90;;;;;;5052860;28;20693;-64
2022/06/05 02:18:35;;;;;;;3.47;2.30;;;17.40;99.90;;;;;;5052860;28;20284;-64
2022/06/05 02:21:03;;;;;;;3.43;2.37;;;17.40;99.90;;;;;;5052456;28;20731;-65
2022/06/05 02:23:33;;;;;;;2.83;2.40;;;17.50;99.90;;;;;;5052718;28;20284;-64
2022/06/05 02:26:02;;;;;;;5.13;2.60;;;17.50;99.90;;;;;;5052928;28;20231;-64
2022/06/05 02:28:29;;;;;;;7.00;2.90;;;17.50;99.90;;;;;;5053059;28;20209;-64
2022/06/05 02:31:08;;;;;;;2.73;2.30;;;17.50;99.90;;;;;;5052717;28;20227;-65
2022/06/05 02:33:42;;;;;;;3.20;2.43;;;17.50;99.90;;;;;;5051621;28;20222;-65
2022/06/05 02:36:19;;;;;;;10.07;4.17;;;17.50;99.90;;;;;;5052569;28;20228;-63
2022/06/05 02:39:00;;;;;;;6.73;3.33;;;17.50;99.90;;;;;;5052353;28;20203;-64
2022/06/05 02:41:33;;;;;;;2.87;2.40;;;17.60;99.90;;;;;;5052300;28;20199;-65
2022/06/05 02:46:58;;;;;;;5.43;2.20;;;17.60;99.90;;;;;;5052315;28;20210;-64
2022/06/05 02:49:31;;;;;;;4.00;2.23;;;17.60;99.90;;;;;;5052738;28;20218;-65
2022/06/05 02:52:03;;;;;;;2.90;2.23;;;17.70;99.90;;;;;;5052454;28;20692;-65
2022/06/05 02:54:29;;;;;;;2.73;2.30;;;17.70;99.90;;;;;;5052256;28;20218;-65
2022/06/05 02:56:57;;;;;;;3.70;2.40;;;17.70;99.90;;;;;;5052271;28;20237;-65
2022/06/05 02:59:25;;;;;;;4.00;2.40;;;17.80;99.90;;;;;;5052699;28;20296;-64
2022/06/05 03:04:38;;;;;;;4.80;2.60;;;17.80;99.90;;;;;;5052010;28;20239;-64
2022/06/05 03:07:05;;;;;;;2.90;2.40;;;17.80;99.90;;;;;;5051831;28;20213;-67
2022/06/05 03:09:33;;;;;;;3.50;2.30;;;17.80;99.90;;;;;;5051971;28;20260;-65
2022/06/05 03:12:01;;;;;;;4.97;2.47;;;17.80;99.90;;;;;;5051951;28;20597;-64
2022/06/05 03:14:28;;;;;;;3.30;2.37;;;17.80;99.90;;;;;;5051748;28;20201;-65
2022/06/05 03:16:56;;;;;;;5.13;1.90;;;17.90;99.90;;;;;;5051430;28;20256;-65
2022/06/05 03:19:23;;;;;;;5.67;3.37;;;17.90;99.90;;;;;;5051828;28;20246;-66
2022/06/05 03:21:50;;;;;;;3.97;2.40;;;18.00;99.90;;;;;;5051555;28;20214;-66
2022/06/05 03:24:17;;;;;;;3.10;2.40;;;18.00;99.90;;;;;;5051444;28;20210;-66
2022/06/05 03:26:43;;;;;;;3.17;2.40;;;18.00;99.90;;;;;;5051115;28;20203;-65
2022/06/05 03:29:10;;;;;;;3.00;2.30;;;18.10;99.90;;;;;;5051908;28;20212;-65
2022/06/05 03:31:38;;;;;;;5.60;3.90;;;18.10;99.90;;;;;;5052116;28;20238;-65
2022/06/05 03:34:06;;;;;;;3.07;2.47;;;18.10;99.90;;;;;;5051284;28;20211;-66
2022/06/05 03:36:33;;;;;;;4.13;2.43;;;18.10;99.90;;;;;;5051649;28;20333;-65
2022/06/05 03:39:00;;;;;;;5.03;2.13;;;18.10;99.90;;;;;;5051389;28;20237;-66
2022/06/05 03:41:27;;;;;;;3.33;2.43;;;18.10;99.90;;;;;;5051437;28;20712;-66
2022/06/05 03:43:54;;;;;;;3.27;2.40;;;18.20;99.90;;;;;;5051714;28;20303;-66
2022/06/05 03:46:21;;;;;;;3.07;2.37;;;18.10;99.90;;;;;;5051939;28;20638;-65
2022/06/05 03:48:48;;;;;;;2.60;2.33;;;18.10;99.90;;;;;;5051314;28;20647;-65
2022/06/05 03:51:18;;;;;;;3.47;2.30;;;18.10;99.90;;;;;;5051157;28;20212;-66
2022/06/05 03:53:46;;;;;;;3.13;2.43;;;18.10;99.90;;;;;;5051455;28;20622;-65
2022/06/05 03:56:15;;;;;;;2.90;2.17;;;18.10;99.90;;;;;;5051755;28;20283;-66
2022/06/05 03:58:42;;;;;;;5.80;2.83;;;18.20;99.90;;;;;;5051139;28;20207;-64
2022/06/05 04:01:10;;;;;;;3.00;2.27;;;18.20;99.90;;;;;;5051567;28;20721;-66
2022/06/05 04:03:38;;;;;;;3.77;2.10;;;18.20;99.90;;;;;;5051502;28;20566;-64
2022/06/05 04:06:06;;;;;;;3.10;2.50;;;18.20;99.90;;;;;;5051749;28;20225;-66
2022/06/05 04:08:35;;;;;;;2.43;2.20;;;18.20;99.90;;;;;;5051414;28;20215;-65
2022/06/05 04:11:05;;;;;;;3.57;2.20;;;18.20;99.90;;;;;;5051282;28;20293;-66
2022/06/05 04:13:32;;;;;;;2.67;2.13;;;18.30;99.90;;;;;;5051552;28;20246;-65
2022/06/05 04:15:59;;;;;;;3.77;2.10;;;18.30;99.90;;;;;;5050958;28;20718;-65
2022/06/05 04:18:26;;;;;;;2.77;2.20;;;18.40;99.90;;;;;;5051212;28;20285;-68
2022/06/05 04:20:53;;;;;;;3.07;2.00;;;18.50;99.90;;;;;;5050397;28;20284;-66
2022/06/05 04:23:20;;;;;;;4.70;2.03;;;18.50;99.90;;;;;;5051252;28;20712;-65
2022/06/05 04:25:48;;;;;;;3.17;2.10;;;18.60;99.90;;;;;;5051643;28;20292;-66
2022/06/05 04:28:15;;;;;;;4.20;2.40;;;18.70;99.90;;;;;;5068192;28;20200;-65
2022/06/05 04:30:42;;;;;;;4.70;3.30;;;18.80;99.90;;;;;;5070649;28;20207;-68
2022/06/05 04:33:09;;;;;;;7.40;3.60;;;18.80;99.90;;;;;;5071350;28;20212;-66
2022/06/05 04:35:36;;;;;;;4.83;3.60;;;18.70;99.90;;;;;;5073587;28;20294;-69
2022/06/05 04:38:03;;;;;;;4.77;3.13;;;18.70;99.90;;;;;;5075380;28;20567;-68
2022/06/05 04:40:30;;;;;;;4.47;3.23;;;18.50;99.90;;;;;;5074813;28;20301;-66
2022/06/05 04:42:58;;;;;;;6.93;3.00;;;18.40;99.90;;;;;;5071667;28;20199;-68
2022/06/05 04:45:25;;;;;;;5.07;3.13;;;18.30;99.90;;;;;;5054685;28;20207;-67
2022/06/05 04:47:52;;;;;;;6.17;4.17;;;18.30;99.90;;;;;;5054551;28;20238;-67
2022/06/05 04:50:19;;;;;;;7.20;4.80;;;18.20;99.90;;;;;;5055336;28;20212;-70
2022/06/05 04:52:46;;;;;;;5.43;4.60;;;18.20;99.90;;;;;;5065326;28;20201;-70
2022/06/05 04:55:13;;;;;;;8.30;5.00;;;18.20;99.90;;;;;;5074725;28;20265;-67
2022/06/05 04:57:40;;;;;;;7.83;4.83;;;18.20;99.90;;;;;;5074066;28;20283;-64
2022/06/05 05:00:09;;;;;;;7.73;5.30;;;18.10;99.90;;;;;;5071348;28;20231;-66
2022/06/05 05:02:36;;;;;;;10.63;5.70;;;18.20;99.90;;;;;;5054779;28;20237;-66
2022/06/05 05:05:03;;;;;;;9.67;5.93;;;18.20;99.90;;;;;;5053986;28;20242;-65
2022/06/05 05:07:30;;;;;;;7.40;5.47;;;18.10;99.90;;;;;;5054295;28;20290;-68
2022/06/05 05:09:57;;;;;;;8.63;6.10;;;18.20;99.90;;;;;;5054651;28;20256;-66
2022/06/05 05:12:24;;;;;;;8.97;5.93;;;18.20;99.90;;;;;;5054547;28;20237;-67
2022/06/05 05:14:52;;;;;;;10.27;6.13;;;18.20;99.90;;;;;;5053785;28;20240;-68
2022/06/05 05:17:21;;;;;;;10.93;6.37;;;18.30;99.90;;;;;;5054138;28;20264;-66
2022/06/05 05:19:48;;;;;;;10.30;6.30;;;18.40;99.90;;;;;;5052623;28;20240;-66
2022/06/05 05:22:14;;;;;;;9.33;6.03;;;18.40;99.90;;;;;;5053796;28;20201;-65
2022/06/05 05:24:41;;;;;;;10.03;6.03;;;18.40;99.90;;;;;;5053037;28;20237;-66
2022/06/05 05:27:10;;;;;;;10.33;6.10;;;18.50;99.90;;;;;;5054091;28;20248;-66
2022/06/05 05:29:40;;;;;;;8.20;5.83;;;18.50;99.90;;;;;;5053181;28;20655;-65
2022/06/05 05:32:08;;;;;;;7.93;5.40;;;18.50;99.90;;;;;;5053901;28;20540;-66
2022/06/05 05:34:36;;;;;;;9.77;5.40;;;18.60;99.90;;;;;;5053063;28;20218;-65
2022/06/05 05:37:04;;;;;;;9.33;5.67;;;18.70;99.90;;;;;;5056549;28;20249;-66
2022/06/05 05:42:30;;;;;;;10.77;6.13;;;18.70;99.90;;;;;;5021960;28;20195;-65
2022/06/05 05:44:57;;;;;;;10.13;6.17;;;18.80;99.90;;;;;;5058187;28;20213;-67
2022/06/05 05:47:28;;;;;;;10.40;5.70;;;18.80;99.90;;;;;;5064869;28;20222;-64
2022/06/05 05:49:59;;;;;;;9.50;5.83;;;18.80;99.90;;;;;;5064664;28;20617;-67
2022/06/05 05:52:27;;;;;;;10.80;5.63;;;18.90;99.90;;;;;;5063372;28;20585;-65
2022/06/05 05:54:54;;;;;;;8.17;5.20;;;19.00;99.90;;;;;;5064206;28;20203;-66
2022/06/05 05:57:22;;;;;;;8.70;5.17;;;19.00;99.90;;;;;;5063489;28;20223;-67
2022/06/05 05:59:49;;;;;;;8.40;5.30;;;19.00;99.90;;;;;;5062267;28;20204;-67
2022/06/05 06:02:21;;;;;;;7.73;4.70;;;19.00;99.90;;;;;;5063423;28;20358;-64
2022/06/05 06:04:49;;;;;;;8.57;5.20;;;19.10;99.90;;;;;;5063561;28;20707;-64
2022/06/05 06:07:18;;;;;;;10.37;5.20;;;19.10;99.90;;;;;;5063047;28;20189;-66
2022/06/05 06:09:44;;;;;;;7.70;4.60;;;19.20;99.90;;;;;;5062114;28;20299;-65
2022/06/05 06:12:12;;;;;;;6.97;5.00;;;19.30;99.90;;;;;;5059526;28;20602;-67
2022/06/05 06:14:40;;;;;;;8.10;4.83;;;19.40;99.90;;;;;;5063023;28;20335;-68
2022/06/05 06:17:07;;;;;;;10.13;5.40;;;19.50;99.90;;;;;;5061036;28;20225;-66
2022/06/05 06:19:34;;;;;;;8.80;5.20;;;19.60;99.90;;;;;;5071476;28;20222;-65
2022/06/05 06:22:01;;;;;;;9.87;5.50;;;19.70;99.90;;;;;;5069259;28;20201;-67
2022/06/05 06:24:29;;;;;;;9.10;5.45;;;19.80;99.90;;;;;;5059628;28;20483;-65
2022/06/05 06:26:56;;;;;;;7.70;4.97;;;19.90;99.90;;;;;;5062330;28;20619;-66
2022/06/05 06:29:23;;;;;;;14.17;7.13;;;20.00;99.90;;;;;;5058258;28;20207;-67
2022/06/05 06:31:51;;;;;;;12.53;5.77;;;20.00;99.90;;;;;;5063288;28;20651;-69
2022/06/05 06:34:18;;;;;;;11.70;6.40;;;20.10;99.90;;;;;;5062273;28;20202;-65
2022/06/05 06:36:45;;;;;;;9.40;5.50;;;20.10;99.90;;;;;;5060379;28;20589;-64
2022/06/05 06:39:12;;;;;;;12.27;6.30;;;20.20;99.90;;;;;;5064407;28;20574;-65
2022/06/05 06:41:40;;;;;;;13.03;6.00;;;20.20;99.90;;;;;;5061632;28;20193;-69
2022/06/05 06:44:07;;;;;;;12.40;6.87;;;20.30;99.90;;;;;;5060655;28;20228;-69
2022/06/05 06:46:36;;;;;;;10.17;6.33;;;20.30;99.90;;;;;;5064669;28;20293;-64
2022/06/05 06:49:03;;;;;;;9.57;6.47;;;20.40;99.90;;;;;;5059050;28;20198;-65
2022/06/05 06:51:30;;;;;;;13.90;6.57;;;20.40;99.90;;;;;;5051916;28;20197;-66
2022/06/05 06:53:56;;;;;;;15.63;6.93;;;20.50;99.90;;;;;;5052537;28;20242;-65
2022/06/05 06:56:26;;;;;;;14.70;7.17;;;20.50;99.90;;;;;;5051295;28;20293;-67
2022/06/05 06:58:55;;;;;;;13.20;6.80;;;20.50;99.90;;;;;;5055067;28;20205;-65
2022/06/05 07:01:22;;;;;;;11.93;6.40;;;20.50;99.90;;;;;;5052372;28;20707;-67
2022/06/05 07:03:49;;;;;;;10.30;6.10;;;20.40;99.90;;;;;;5052734;28;20277;-68
2022/06/05 07:06:17;;;;;;;12.07;7.10;;;20.30;99.90;;;;;;5052087;28;20705;-66
2022/06/05 07:08:45;;;;;;;12.27;7.93;;;20.10;99.90;;;;;;5052651;28;20217;-69
2022/06/05 07:11:14;;;;;;;11.43;6.63;;;20.10;99.90;;;;;;5060272;28;20634;-67
2022/06/05 07:13:41;;;;;;;9.87;6.00;;;20.20;99.90;;;;;;5059978;28;20208;-67
2022/06/05 07:16:11;;;;;;;11.40;6.10;;;20.20;99.90;;;;;;5072077;28;20240;-66
2022/06/05 07:18:39;;;;;;;8.43;5.53;;;20.20;99.90;;;;;;5061713;28;20221;-67
2022/06/05 07:21:11;;;;;;;7.20;4.77;;;20.20;99.90;;;;;;5051962;28;20290;-66
2022/06/05 07:23:39;;;;;;;7.57;4.83;;;20.20;99.90;;;;;;5052971;28;20277;-68
2022/06/05 07:26:08;;;;;;;8.47;4.57;;;20.20;99.90;;;;;;5071821;28;20205;-65
2022/06/05 07:28:35;;;;;;;7.13;3.63;;;20.10;99.90;;;;;;5071870;28;20659;-66
2022/06/05 07:31:04;;;;;;;6.67;4.47;;;20.10;99.90;;;;;;5072024;28;20197;-67
2022/06/05 07:33:33;;;;;;;4.87;4.00;;;20.00;99.90;;;;;;5071357;28;20723;-66
2022/06/05 07:36:03;;;;;;;4.53;3.43;;;20.00;99.90;;;;;;5071293;28;20255;-67
2022/06/05 07:38:30;;;;;;;6.53;3.90;;;19.90;99.90;;;;;;5063819;28;20217;-69
2022/06/05 07:40:58;;;;;;;6.03;3.93;;;19.90;99.90;;;;;;5061365;28;20209;-66
2022/06/05 07:43:25;;;;;;;4.53;3.40;;;19.90;99.90;;;;;;5060020;28;20244;-66
2022/06/05 07:45:52;;;;;;;8.03;3.77;;;19.80;99.90;;;;;;5071071;28;20204;-66
2022/06/05 07:48:19;;;;;;;4.13;3.70;;;19.90;99.90;;;;;;5070985;28;20711;-68
2022/06/05 07:56:16;;;;;;;7.17;3.40;;;19.80;99.90;;;;;;5070571;28;20253;-67
2022/06/05 07:58:43;;;;;;;9.17;4.50;;;19.80;99.90;;;;;;5071162;28;20231;-66
2022/06/05 08:01:10;;;;;;;5.17;3.30;;;19.80;99.90;;;;;;5070734;28;20229;-65
2022/06/05 08:03:37;;;;;;;5.20;3.23;;;19.70;99.90;;;;;;5066850;28;20197;-67
2022/06/05 08:06:07;;;;;;;6.83;4.20;;;19.60;99.90;;;;;;5057215;28;20294;-65
2022/06/05 08:08:35;;;;;;;6.50;3.83;;;19.60;99.90;;;;;;5061349;28;20226;-68
2022/06/05 08:11:06;;;;;;;6.27;3.60;;;19.60;99.90;;;;;;5064450;28;20243;-66
2022/06/05 08:13:34;;;;;;;8.63;3.70;;;19.60;99.90;;;;;;5063707;28;20202;-68
2022/06/05 08:16:01;;;;;;;7.57;4.00;;;19.50;99.90;;;;;;5065838;28;20749;-67
2022/06/05 08:18:28;;;;;;;5.67;3.20;;;19.50;99.90;;;;;;5054391;28;20263;-66
2022/06/05 08:20:55;;;;;;;3.80;2.97;;;19.60;99.90;;;;;;5054116;28;20251;-69
2022/06/05 08:23:24;;;;;;;7.13;3.27;;;19.60;99.90;;;;;;5054268;28;20580;-68
2022/06/05 08:25:52;;;;;;;5.87;3.63;;;19.70;99.90;;;;;;5054955;28;20598;-66
2022/06/05 08:28:19;;;;;;;8.17;3.30;;;19.80;99.90;;;;;;5054445;28;20267;-66
2022/06/05 08:30:45;;;;;;;4.37;3.27;;;19.80;99.90;;;;;;5054258;28;20197;-69
2022/06/05 08:33:13;;;;;;;5.40;3.73;;;19.90;99.90;;;;;;5053668;28;20197;-70
2022/06/05 08:35:40;;;;;;;4.30;3.37;;;20.00;99.90;;;;;;5054761;28;20627;-68
2022/06/05 08:43:59;;;;;;;3.73;2.97;;;20.00;99.90;;;;;;5053106;28;20205;-66
2022/06/05 08:46:29;;;;;;;3.33;2.73;;;20.10;99.90;;;;;;5053502;28;20197;-65
2022/06/05 08:48:59;;;;;;;5.13;3.30;;;20.00;99.90;;;;;;5053973;28;20288;-65
2022/06/05 08:51:40;;;;;;;4.13;3.50;;;20.00;99.90;;;;;;5054077;28;20200;-65
2022/06/05 08:54:14;;;;;;;3.47;3.13;;;20.00;99.90;;;;;;5053712;28;20230;-69
2022/06/05 08:56:45;;;;;;;4.83;3.53;;;20.00;99.90;;;;;;5065836;28;20656;-65
2022/06/05 08:59:19;;;;;;;4.73;3.60;;;20.00;99.90;;;;;;5073079;28;20231;-65
2022/06/05 09:01:54;;;;;;;8.30;5.60;;;20.00;99.90;;;;;;5073085;28;20279;-65
2022/06/05 09:04:45;;;;;;;10.70;3.03;;;20.10;99.90;;;;;;5073196;28;20204;-66
2022/06/05 09:07:16;;;;;;;5.13;3.00;;;20.10;99.90;;;;;;5063718;28;20193;-66
2022/06/05 09:09:46;;;;;;;3.87;3.03;;;20.10;99.90;;;;;;5057619;28;20231;-65
2022/06/05 09:12:23;;;;;;;4.40;2.57;;;19.90;99.90;;;;;;5053613;28;20599;-64
2022/06/05 09:14:57;;;;;;;4.17;2.50;;;19.80;99.90;;;;;;5062683;28;20377;-66
2022/06/05 09:17:26;;;;;;;5.77;2.87;;;19.80;99.90;;;;;;5072616;28;20213;-65
2022/06/05 09:19:54;;;;;;;2.93;2.63;;;19.80;99.90;;;;;;5054087;28;20561;-65
2022/06/05 09:22:28;;;;;;;6.33;3.70;;;19.90;99.90;;;;;;5056682;28;20222;-66
2022/06/05 09:25:20;;;;;;;3.20;2.90;;;20.00;99.90;;;;;;5063925;28;20228;-67
2022/06/05 09:28:02;;;;;;;6.27;3.50;;;20.10;99.90;;;;;;5062071;28;20274;-68
2022/06/05 09:30:33;;;;;;;3.97;2.90;;;20.10;99.90;;;;;;5061087;28;20190;-67
2022/06/05 09:33:10;;;;;;;3.67;2.77;;;20.10;99.90;;;;;;5052904;28;20205;-66
2022/06/05 09:35:41;;;;;;;2.83;2.30;;;20.10;99.90;;;;;;5052551;28;20237;-70
2022/06/05 09:38:17;;;;;;;4.87;2.80;;;20.00;99.90;;;;;;5055139;28;20311;-66
2022/06/05 09:40:55;;;;;;;14.90;3.00;;;20.00;99.90;;;;;;5062348;28;20276;-65
2022/06/05 09:43:42;;;;;;;5.47;3.00;;;20.00;99.90;;;;;;5069968;28;20677;-65
2022/06/05 09:46:31;;;;;;;4.10;2.70;;;20.00;99.90;;;;;;5052233;28;20205;-67
2022/06/05 09:49:03;;;;;;;5.47;2.80;;;20.10;99.90;;;;;;5051968;28;20182;-68
2022/06/05 09:51:30;;;;;;;4.00;2.80;;;20.20;99.90;;;;;;5052287;28;20193;-67
2022/06/05 09:54:02;;;;;;;2.73;2.40;;;20.20;99.90;;;;;;5059636;28;20609;-70
2022/06/05 09:58:24;;;;;;;4.57;2.83;;;20.20;99.90;;;;;;5070789;28;20693;-67
2022/06/05 09:59:32;;;;;;;5.63;2.30;;;20.10;99.90;;;;;;5053144;28;20608;-66
2022/06/05 10:02:02;;;;;;;3.00;2.33;;;20.10;99.90;;;;;;5056725;28;20240;-67
2022/06/05 10:04:31;;;;;;;3.93;2.80;;;20.10;99.90;;;;;;5052688;28;20209;-66
2022/06/05 10:07:04;;;;;;;3.67;2.67;;;20.10;99.90;;;;;;5060091;28;20206;-68
2022/06/05 10:09:32;;;;;;;4.33;2.70;;;20.10;99.90;;;;;;5052535;28;20562;-68
2022/06/05 10:12:03;;;;;;;2.83;2.43;;;20.20;99.90;;;;;;5052509;28;20638;-68
2022/06/05 10:14:39;;;;;;;5.70;2.80;;;20.20;99.90;;;;;;5052964;28;20225;-68
2022/06/05 10:17:34;;;;;;;5.03;2.53;;;20.30;99.90;;;;;;5052849;28;20201;-67
2022/06/05 10:20:18;;;;;;;2.90;2.60;;;20.40;99.90;;;;;;5055142;28;20246;-66
2022/06/05 10:22:50;;;;;;;4.43;2.40;;;20.60;99.90;;;;;;5052706;28;20297;-67
2022/06/05 10:25:27;;;;;;;3.77;2.30;;;20.70;99.90;;;;;;5052556;28;20227;-68
2022/06/05 10:27:58;;;;;;;2.67;2.40;;;20.80;99.90;;;;;;5052427;28;20525;-67
2022/06/05 10:30:33;;;;;;;9.03;2.43;;;20.80;99.90;;;;;;5058547;28;20218;-67
2022/06/05 10:33:05;;;;;;;2.57;2.10;;;20.80;99.90;;;;;;5069910;28;20230;-69
2022/06/05 10:35:45;;;;;;;22.63;3.60;;;20.80;99.90;;;;;;5065912;28;20206;-66
2022/06/05 10:38:33;;;;;;;5.07;2.20;;;20.90;99.90;;;;;;5054473;28;20211;-66
2022/06/05 10:41:06;;;;;;;3.40;2.30;;;20.90;99.90;;;;;;5060900;28;20223;-66
2022/06/05 10:43:34;;;;;;;3.40;2.23;;;20.90;99.90;;;;;;5063603;28;20202;-67
2022/06/05 10:46:06;;;;;;;2.90;2.10;;;21.00;99.90;;;;;;5052258;28;20302;-67
2022/06/05 10:48:51;;;;;;;2.43;2.20;;;21.00;99.90;;;;;;5052098;28;20620;-67
2022/06/05 10:51:28;;;;;;;3.17;2.40;;;21.10;99.90;;;;;;5052890;28;20229;-68
2022/06/05 10:54:01;;;;;;;2.47;2.10;;;21.10;99.90;;;;;;5051775;28;20197;-66
2022/06/05 10:56:34;;;;;;;5.97;4.50;;;21.20;99.90;;;;;;5052098;28;20190;-67
2022/06/05 10:59:13;;;;;;;2.67;2.47;;;21.20;99.90;;;;;;5051761;28;20224;-68
2022/06/05 11:01:54;;;;;;;3.20;2.50;;;21.40;99.90;;;;;;5052163;28;20284;-68
2022/06/05 11:04:36;;;;;;;2.93;2.50;;;21.60;99.90;;;;;;5049405;28;20252;-69
2022/06/05 11:07:22;;;;;;;4.47;2.20;;;21.60;99.90;;;;;;5062332;28;20719;-70
2022/06/05 11:09:52;;;;;;;2.93;2.00;;;21.70;99.90;;;;;;5049461;28;20189;-67
2022/06/05 11:15:17;;;;;;;4.57;2.30;;;21.90;99.90;;;;;;5050562;28;20205;-68
2022/06/05 11:17:53;;;;;;;3.93;2.33;;;21.90;99.90;;;;;;5050244;28;20286;-70
2022/06/05 11:20:23;;;;;;;8.03;2.33;;;21.90;99.90;;;;;;5052537;28;20185;-71
2022/06/05 11:22:56;;;;;;;9.57;2.80;;;22.00;99.90;;;;;;5060480;28;20359;-71
2022/06/05 11:25:27;;;;;;;5.07;2.97;;;22.00;99.90;;;;;;5059274;28;20608;-71
2022/06/05 11:28:33;;;;;;;3.43;2.33;;;21.90;99.90;;;;;;5051213;28;20652;-68
2022/06/05 11:31:14;;;;;;;4.77;2.50;;;21.90;99.90;;;;;;5055477;28;20201;-71
2022/06/05 11:33:53;;;;;;;11.87;8.07;;;22.10;99.90;;;;;;5060531;28;20563;-66
2022/06/05 11:36:25;;;;;;;4.83;3.10;;;22.20;99.90;;;;;;5060074;28;20636;-69
2022/06/05 11:39:12;;;;;;;4.53;3.50;;;22.30;99.90;;;;;;5057504;28;20221;-72
2022/06/05 11:41:44;;;;;;;8.03;4.33;;;22.40;99.90;;;;;;5068498;28;20754;-70
2022/06/05 11:44:32;;;;;;;6.77;3.00;;;22.40;99.90;;;;;;5072604;28;20276;-70
2022/06/05 11:47:04;;;;;;;4.23;3.47;;;22.60;99.50;;;;;;5071752;28;20216;-70
2022/06/05 11:49:44;;;;;;;4.57;2.63;;;22.60;99.20;;;;;;5072049;28;20701;-69
2022/06/05 11:52:16;;;;;;;12.20;2.27;;;22.60;98.80;;;;;;5071733;28;20188;-69
2022/06/05 11:54:50;;;;;;;7.87;2.80;;;22.60;99.10;;;;;;5072517;28;20286;-70
2022/06/05 11:57:22;;;;;;;3.37;2.30;;;22.70;99.00;;;;;;5071678;28;20218;-70
2022/06/05 11:59:55;;;;;;;5.80;2.43;;;22.60;99.60;;;;;;5071958;28;20210;-69
2022/06/05 12:02:46;;;;;;;2.87;2.27;;;22.60;99.00;;;;;;5071248;28;20236;-72
2022/06/05 12:05:23;;;;;;;5.93;2.00;;;22.50;98.90;;;;;;5071956;28;20213;-70
2022/06/05 12:07:51;;;;;;;3.63;2.10;;;22.60;98.70;;;;;;5071521;28;20287;-71
2022/06/05 12:10:24;;;;;;;6.10;2.13;;;22.60;98.40;;;;;;5071616;28;20236;-71
2022/06/05 12:13:02;;;;;;;2.97;2.20;;;22.70;98.40;;;;;;5071780;28;20190;-69
2022/06/05 12:15:40;;;;;;;3.07;2.37;;;22.80;98.30;;;;;;5071762;28;20291;-69
2022/06/05 12:18:16;;;;;;;2.53;1.73;;;23.00;98.40;;;;;;5072794;28;20327;-70
2022/06/05 12:20:49;;;;;;;2.30;2.00;;;23.20;98.20;;;;;;5077054;28;20657;-69
2022/06/05 12:23:21;;;;;;;2.63;1.87;;;23.10;97.70;;;;;;5074784;28;20705;-67
2022/06/05 12:25:54;;;;;;;4.33;3.03;;;23.20;97.80;;;;;;5071831;28;20286;-70
2022/06/05 12:28:27;;;;;;;5.83;4.67;;;23.20;97.70;;;;;;5071808;28;20594;-72
2022/06/05 12:30:58;;;;;;;5.77;2.77;;;23.30;96.50;;;;;;5071964;28;20257;-71
2022/06/05 12:33:32;;;;;;;1.77;1.60;;;23.20;95.50;;;;;;5071969;28;20285;-69
2022/06/05 12:36:22;;;;;;;6.73;1.80;;;23.20;95.80;;;;;;5071697;28;20211;-70
2022/06/05 12:38:56;;;;;;;3.40;1.73;;;23.20;96.00;;;;;;5071465;28;20687;-68
2022/06/05 12:41:25;;;;;;;1.57;1.47;;;23.20;96.40;;;;;;5071543;28;20261;-72
2022/06/05 12:44:04;;;;;;;1.97;1.67;;;23.20;96.20;;;;;;5071867;28;20195;-71
2022/06/05 12:46:37;;;;;;;5.07;2.27;;;23.30;96.00;;;;;;5071263;28;20222;-71
2022/06/05 12:49:23;;;;;;;4.00;1.80;;;23.50;96.10;;;;;;5071515;28;20654;-70
2022/06/05 12:52:03;;;;;;;1.70;1.60;;;23.60;96.30;;;;;;5071137;28;20252;-69
2022/06/05 12:54:36;;;;;;;1.73;1.63;;;23.70;95.90;;;;;;5071402;28;20328;-70
2022/06/05 12:57:12;;;;;;;2.77;1.80;;;23.80;95.30;;;;;;5074692;28;20190;-68
2022/06/05 12:59:46;;;;;;;12.57;2.10;;;23.80;94.80;;;;;;5074917;28;20597;-68
2022/06/05 13:02:26;;;;;;;3.40;1.70;;;23.70;94.20;;;;;;5074800;28;20244;-68
2022/06/05 13:04:59;;;;;;;2.07;1.80;;;23.70;94.00;;;;;;5075290;28;20616;-71
2022/06/05 13:07:39;;;;;;;2.43;1.70;;;23.70;93.60;;;;;;5074737;28;20286;-68
2022/06/05 13:10:19;;;;;;;5.87;2.30;;;23.60;93.40;;;;;;5074586;28;20192;-69
2022/06/05 13:12:51;;;;;;;4.00;2.27;;;23.70;93.80;;;;;;5074222;28;20280;-69
2022/06/05 13:15:25;;;;;;;3.40;1.63;;;23.70;93.20;;;;;;5074456;28;20211;-68
2022/06/05 13:17:57;;;;;;;2.43;1.80;;;23.70;93.00;;;;;;5074926;28;20198;-68
2022/06/05 13:20:34;;;;;;;3.80;1.60;;;23.70;92.30;;;;;;5074994;28;20314;-72
2022/06/05 13:23:13;;;;;;;1.93;1.63;;;23.80;92.20;;;;;;5074553;28;20194;-68
2022/06/05 13:25:58;;;;;;;1.93;1.50;;;23.80;92.40;;;;;;5074523;28;20387;-69
2022/06/05 13:28:41;;;;;;;2.90;1.70;;;23.80;92.70;;;;;;5073748;28;20199;-69
2022/06/05 13:31:21;;;;;;;3.13;1.53;;;23.90;93.00;;;;;;5074752;28;20649;-69